Time;durP1;ratioP1;P1;durP2;ratioP2;P2;SDS_P1;SDS_P2;PMS_P1;PMS_P2;Temp;Humidity;BMP_temperature;BMP_pressure;BME280_temperature;BME280_humidity;BME280_pressure;Samples;Min_cycle;Max_cycle;Signal;HPM_P1;HPM_P2
2022/11/28 00:02:05;;;;;;;12.90;5.10;;;;;;;5.61;97.68;101525.78;5033297;28;20491;-72
2022/11/28 00:04:32;;;;;;;13.23;5.70;;;;;;;5.64;97.36;101520.75;5033866;28;20807;-73
2022/11/28 00:06:59;;;;;;;17.93;7.03;;;;;;;5.62;97.42;101522.84;5053219;28;20474;-71
2022/11/28 00:09:26;;;;;;;20.73;6.77;;;;;;;5.64;97.61;101528.81;5053169;28;20443;-71
2022/11/28 00:11:52;;;;;;;16.03;6.73;;;;;;;5.64;97.73;101517.25;5051202;28;20510;-71
2022/11/28 00:14:20;;;;;;;18.37;6.63;;;;;;;5.68;97.15;101516.53;5051938;28;20963;-71
2022/11/28 00:16:46;;;;;;;19.30;6.03;;;;;;;5.73;97.35;101518.47;5051588;28;20838;-72
2022/11/28 00:19:14;;;;;;;14.47;6.30;;;;;;;5.69;97.15;101510.06;5052243;28;20513;-72
2022/11/28 00:21:42;;;;;;;18.43;7.30;;;;;;;5.67;97.50;101504.16;5051059;28;20516;-71
2022/11/28 00:24:09;;;;;;;23.30;5.47;;;;;;;5.66;97.02;101496.31;5049464;28;20486;-72
2022/11/28 00:26:39;;;;;;;14.57;6.80;;;;;;;5.68;97.12;101492.34;5052298;28;20467;-71
2022/11/28 00:29:07;;;;;;;17.37;8.10;;;;;;;5.73;96.97;101500.47;5051031;28;20974;-71
2022/11/28 00:31:40;;;;;;;13.67;5.17;;;;;;;5.76;97.29;101491.91;5051929;28;20469;-72
2022/11/28 00:34:07;;;;;;;19.20;7.47;;;;;;;5.78;97.21;101492.47;5051228;28;20454;-72
2022/11/28 00:36:34;;;;;;;15.00;7.17;;;;;;;5.76;96.75;101496.47;5051835;28;20462;-70
2022/11/28 00:39:02;;;;;;;16.10;7.40;;;;;;;5.71;95.70;101486.47;5051746;28;20549;-71
2022/11/28 00:41:30;;;;;;;15.67;6.50;;;;;;;5.57;96.45;101487.84;5051093;28;20513;-70
2022/11/28 00:43:57;;;;;;;20.40;7.37;;;;;;;5.48;96.96;101492.81;5049726;28;20488;-72
2022/11/28 00:46:25;;;;;;;16.60;6.80;;;;;;;5.47;96.67;101483.13;5050842;28;20979;-70
2022/11/28 00:48:52;;;;;;;16.20;6.90;;;;;;;5.46;97.63;101491.44;5051548;28;20486;-71
2022/11/28 00:51:20;;;;;;;14.27;7.20;;;;;;;5.51;97.13;101486.16;5051679;28;20485;-70
2022/11/28 00:53:48;;;;;;;19.40;6.70;;;;;;;5.48;97.06;101483.94;5050112;28;20458;-71
2022/11/28 00:56:19;;;;;;;20.63;6.47;;;;;;;5.48;96.90;101479.38;5049254;28;20553;-72
2022/11/28 00:58:46;;;;;;;14.30;5.90;;;;;;;5.44;97.54;101482.78;5051478;28;20846;-71
2022/11/28 01:01:15;;;;;;;14.70;6.70;;;;;;;5.42;97.13;101468.81;5052294;28;20462;-71
2022/11/28 01:03:43;;;;;;;19.27;6.53;;;;;;;5.36;97.49;101472.44;5050165;28;20485;-70
2022/11/28 01:06:11;;;;;;;12.93;6.40;;;;;;;5.31;97.83;101470.50;5050960;28;20541;-71
2022/11/28 01:08:39;;;;;;;19.43;6.80;;;;;;;5.31;97.84;101471.34;5051750;28;20490;-71
2022/11/28 01:11:11;;;;;;;19.00;6.03;;;;;;;5.36;98.06;101461.72;5055096;28;20482;-71
2022/11/28 01:13:39;;;;;;;28.23;8.30;;;;;;;5.36;97.85;101465.22;5055139;28;20450;-71
2022/11/28 01:16:07;;;;;;;17.40;6.80;;;;;;;5.35;97.83;101457.41;5053149;28;21000;-72
2022/11/28 01:18:33;;;;;;;17.00;6.57;;;;;;;5.35;98.18;101460.91;5056312;28;20481;-71
2022/11/28 01:21:00;;;;;;;18.37;6.97;;;;;;;5.37;98.43;101447.25;5045272;28;20623;-71
2022/11/28 01:23:26;;;;;;;15.53;5.70;;;;;;;5.42;98.12;101450.00;5054982;28;21032;-71
2022/11/28 01:25:53;;;;;;;17.67;6.90;;;;;;;5.48;97.92;101452.50;5052803;28;20493;-71
2022/11/28 01:28:20;;;;;;;15.07;5.97;;;;;;;5.45;98.23;101450.34;5053466;28;20458;-72
2022/11/28 01:30:48;;;;;;;14.50;6.60;;;;;;;5.47;98.25;101455.44;5053993;28;20999;-73
2022/11/28 01:33:14;;;;;;;16.37;7.13;;;;;;;5.41;98.04;101451.88;5055150;28;20537;-71
2022/11/28 01:35:41;;;;;;;16.57;6.20;;;;;;;5.37;98.26;101439.19;5054692;28;20464;-71
2022/11/28 01:38:07;;;;;;;18.87;8.33;;;;;;;5.34;98.19;101442.34;5053977;28;20537;-73
2022/11/28 01:40:34;;;;;;;21.37;7.47;;;;;;;5.41;97.91;101437.63;5055077;28;20466;-72
2022/11/28 01:43:00;;;;;;;14.80;6.40;;;;;;;5.35;98.01;101430.53;5054075;28;20482;-72
2022/11/28 01:45:30;;;;;;;16.07;7.33;;;;;;;5.39;98.20;101431.69;5052013;28;20508;-71
2022/11/28 01:48:02;;;;;;;26.13;7.90;;;;;;;5.43;97.75;101433.63;5054934;28;20536;-72
2022/11/28 01:50:31;;;;;;;15.43;7.30;;;;;;;5.45;97.44;101434.22;5054045;28;20461;-72
2022/11/28 01:53:01;;;;;;;29.23;7.20;;;;;;;5.39;96.74;101429.00;5054246;28;20569;-70
2022/11/28 01:55:33;;;;;;;18.97;7.00;;;;;;;5.31;97.16;101420.31;5053501;28;20504;-73
2022/11/28 01:58:00;;;;;;;22.40;6.90;;;;;;;5.29;96.95;101418.91;5055390;28;20447;-72
2022/11/28 02:00:27;;;;;;;19.57;7.43;;;;;;;5.19;97.18;101416.06;5054320;28;20993;-72
2022/11/28 02:03:00;;;;;;;13.40;7.00;;;;;;;5.20;97.20;101418.50;5053489;28;20478;-73
2022/11/28 02:05:27;;;;;;;27.37;8.40;;;;;;;5.24;97.08;101410.78;5053114;28;20501;-72
2022/11/28 02:07:53;;;;;;;17.70;6.90;;;;;;;5.22;97.71;101405.66;5054543;28;20454;-73
2022/11/28 02:10:24;;;;;;;13.50;7.07;;;;;;;5.21;96.99;101403.19;5054264;28;20469;-72
2022/11/28 02:13:08;;;;;;;18.87;7.63;;;;;;;5.30;96.67;101396.34;5054977;28;20517;-73
2022/11/28 02:15:51;;;;;;;15.20;7.07;;;;;;;5.29;97.00;101406.28;5054230;28;20542;-72
2022/11/28 02:18:31;;;;;;;16.60;7.83;;;;;;;5.27;96.84;101386.94;5052155;28;20963;-72
2022/11/28 02:21:28;;;;;;;15.27;6.47;;;;;;;5.20;97.54;101380.91;5038415;28;20515;-73
2022/11/28 02:24:17;;;;;;;17.93;7.63;;;;;;;5.22;97.21;101388.72;5055214;28;20513;-72
2022/11/28 02:27:04;;;;;;;14.50;6.40;;;;;;;5.11;96.79;101386.94;5050508;28;20545;-73
2022/11/28 02:30:04;;;;;;;18.50;7.73;;;;;;;5.10;96.91;101391.50;5053704;28;20486;-73
2022/11/28 02:32:43;;;;;;;17.53;7.10;;;;;;;5.12;96.89;101380.50;5047705;28;20561;-72
2022/11/28 02:35:15;;;;;;;16.57;7.33;;;;;;;5.07;96.70;101384.72;5051433;28;20462;-72
2022/11/28 02:37:47;;;;;;;16.20;7.30;;;;;;;5.07;96.02;101378.56;5053118;28;20486;-72
2022/11/28 02:40:21;;;;;;;15.87;7.70;;;;;;;4.98;96.98;101374.66;5053806;28;20903;-71
2022/11/28 02:43:00;;;;;;;18.20;7.67;;;;;;;4.94;97.03;101370.81;5052997;28;20489;-73
2022/11/28 02:45:35;;;;;;;18.03;6.50;;;;;;;4.95;96.93;101372.44;5052810;28;20474;-72
2022/11/28 02:48:07;;;;;;;17.33;7.50;;;;;;;4.96;97.98;101371.41;5051725;28;20445;-72
2022/11/28 02:50:40;;;;;;;15.63;6.50;;;;;;;4.97;98.08;101365.78;5053267;28;20458;-73
2022/11/28 02:53:11;;;;;;;16.87;7.77;;;;;;;5.00;97.65;101365.31;5034461;28;20546;-72
2022/11/28 02:55:40;;;;;;;15.10;6.97;;;;;;;5.03;97.41;101364.00;5045304;28;20844;-73
2022/11/28 02:58:06;;;;;;;16.17;8.30;;;;;;;4.99;97.74;101363.66;5050168;28;20454;-73
2022/11/28 03:00:35;;;;;;;17.87;7.67;;;;;;;5.03;97.15;101364.00;5053022;28;20466;-71
2022/11/28 03:03:26;;;;;;;16.23;6.53;;;;;;;5.01;97.66;101355.38;5052466;28;20508;-71
2022/11/28 03:05:58;;;;;;;20.27;7.37;;;;;;;4.99;97.81;101357.47;5052765;28;20482;-72
2022/11/28 03:08:36;;;;;;;16.03;7.07;;;;;;;5.05;97.24;101359.19;5051183;28;20504;-72
2022/11/28 03:11:10;;;;;;;19.23;7.37;;;;;;;5.09;97.26;101356.81;5052066;28;20470;-72
2022/11/28 03:13:41;;;;;;;13.73;6.10;;;;;;;5.05;97.72;101356.53;5052611;28;20493;-70
2022/11/28 03:16:17;;;;;;;14.10;7.00;;;;;;;5.04;97.10;101350.31;5053537;28;20454;-72
2022/11/28 03:18:55;;;;;;;14.47;5.57;;;;;;;4.93;96.39;101343.16;5052956;28;20485;-72
2022/11/28 03:21:29;;;;;;;20.90;6.70;;;;;;;4.85;96.96;101346.25;5052661;28;20501;-71
2022/11/28 03:24:00;;;;;;;13.93;6.57;;;;;;;4.85;96.59;101337.41;5053415;28;20432;-73
2022/11/28 03:26:34;;;;;;;14.97;6.70;;;;;;;4.85;96.76;101340.09;5052437;28;20545;-72
2022/11/28 03:29:06;;;;;;;18.87;7.23;;;;;;;4.80;96.61;101340.81;5051128;28;20462;-74
2022/11/28 03:31:38;;;;;;;17.70;7.13;;;;;;;4.76;96.77;101345.84;5048732;28;20477;-72
2022/11/28 03:34:10;;;;;;;15.80;6.53;;;;;;;4.75;96.99;101341.53;5050007;28;20462;-72
2022/11/28 03:36:43;;;;;;;13.40;5.70;;;;;;;4.76;97.00;101340.47;5052950;28;20490;-72
2022/11/28 03:39:14;;;;;;;18.67;7.03;;;;;;;4.68;96.63;101335.50;5052744;28;20459;-71
2022/11/28 03:41:45;;;;;;;19.63;7.60;;;;;;;4.65;96.60;101330.66;5051719;28;20588;-72
2022/11/28 03:44:19;;;;;;;14.40;6.43;;;;;;;4.63;96.87;101332.75;5050290;28;20462;-71
2022/11/28 03:46:47;;;;;;;13.10;5.70;;;;;;;4.55;97.95;101330.47;5052656;28;20545;-71
2022/11/28 03:49:20;;;;;;;16.37;6.17;;;;;;;4.49;97.41;101326.88;5053722;28;20438;-71
2022/11/28 03:51:53;;;;;;;13.57;6.60;;;;;;;4.52;97.96;101326.41;5050547;28;20525;-71
2022/11/28 03:54:24;;;;;;;14.27;5.90;;;;;;;4.54;98.43;101321.59;5052540;28;20466;-71
2022/11/28 03:56:57;;;;;;;17.20;6.37;;;;;;;4.53;99.34;101328.03;5052118;28;20919;-71
2022/11/28 03:59:28;;;;;;;22.70;5.80;;;;;;;4.46;99.69;101315.81;5051507;28;20963;-71
2022/11/28 04:02:03;;;;;;;16.43;6.07;;;;;;;4.52;99.32;101312.19;5049908;28;20509;-72
2022/11/28 04:04:37;;;;;;;17.90;6.30;;;;;;;4.48;99.27;101306.47;5052696;28;20979;-72
2022/11/28 04:07:11;;;;;;;20.13;5.57;;;;;;;4.45;99.99;101306.97;5053393;28;20450;-71
2022/11/28 04:09:45;;;;;;;13.07;6.00;;;;;;;4.47;100.00;101304.03;5051758;28;20453;-72
2022/11/28 04:12:21;;;;;;;19.00;6.20;;;;;;;4.53;99.35;101295.84;5037904;28;20543;-72
2022/11/28 04:14:53;;;;;;;15.00;6.33;;;;;;;4.52;98.93;101296.09;5033407;28;20522;-73
2022/11/28 04:17:30;;;;;;;15.50;6.03;;;;;;;4.53;99.42;101306.56;5049893;28;20461;-71
2022/11/28 04:20:04;;;;;;;20.43;8.20;;;;;;;4.55;98.92;101300.94;5053514;28;20457;-66
2022/11/28 04:22:35;;;;;;;17.00;8.20;;;;;;;4.53;98.72;101300.38;5051808;28;21054;-66
2022/11/28 04:25:07;;;;;;;13.90;5.93;;;;;;;4.44;98.74;101296.47;5050375;28;20482;-70
2022/11/28 04:27:38;;;;;;;16.07;7.00;;;;;;;4.42;98.95;101303.94;5052292;28;20554;-72
2022/11/28 04:30:07;;;;;;;15.70;6.37;;;;;;;4.47;99.30;101295.97;5051859;28;20835;-71
2022/11/28 04:32:37;;;;;;;16.47;7.50;;;;;;;4.47;98.66;101291.44;5051192;28;20523;-71
2022/11/28 04:35:09;;;;;;;15.57;6.17;;;;;;;4.50;98.48;101290.13;5052299;28;20596;-72
2022/11/28 04:37:39;;;;;;;14.90;6.83;;;;;;;4.48;98.66;101281.53;5034021;28;20887;-72
2022/11/28 04:40:09;;;;;;;17.93;6.10;;;;;;;4.46;98.92;101287.13;5038256;28;21010;-72
2022/11/28 04:42:39;;;;;;;16.73;6.87;;;;;;;4.53;99.38;101284.28;5052724;28;20885;-72
2022/11/28 04:45:11;;;;;;;21.10;7.17;;;;;;;4.59;98.98;101282.50;5053821;28;20565;-72
2022/11/28 04:47:38;;;;;;;16.27;6.40;;;;;;;4.57;98.58;101284.63;5043163;28;20541;-72
2022/11/28 04:50:07;;;;;;;17.43;7.97;;;;;;;4.54;98.44;101275.19;5045671;28;20458;-72
2022/11/28 04:55:12;;;;;;;16.87;5.10;;;;;;;4.62;98.33;101277.47;5098122;22;20911;-69
2022/11/28 04:57:42;;;;;;;16.43;7.60;;;;;;;4.71;97.85;101285.91;5075226;28;20541;-70
2022/11/28 05:00:11;;;;;;;19.07;6.70;;;;;;;4.70;98.50;101284.31;5074178;28;20459;-69
2022/11/28 05:02:40;;;;;;;13.80;6.20;;;;;;;4.76;98.08;101278.75;5074614;28;20554;-69
2022/11/28 05:05:11;;;;;;;16.33;7.03;;;;;;;4.81;98.34;101278.81;5055503;28;20486;-70
2022/11/28 05:07:38;;;;;;;15.50;6.43;;;;;;;4.89;97.76;101282.97;5053788;28;20537;-70
2022/11/28 05:10:05;;;;;;;19.30;7.80;;;;;;;4.93;97.98;101280.63;5056120;28;20525;-69
2022/11/28 05:12:32;;;;;;;16.37;6.40;;;;;;;4.95;97.93;101283.84;5054204;28;20552;-69
2022/11/28 05:14:58;;;;;;;20.83;6.43;;;;;;;5.03;97.64;101283.44;5055308;28;20552;-69
2022/11/28 05:17:25;;;;;;;13.80;6.33;;;;;;;5.03;97.32;101272.72;5054521;28;20458;-69
2022/11/28 05:19:52;;;;;;;14.30;6.53;;;;;;;4.96;97.15;101275.59;5055321;28;20493;-70
2022/11/28 05:22:20;;;;;;;13.00;5.43;;;;;;;5.04;97.47;101279.69;5055257;28;20544;-69
2022/11/28 05:24:46;;;;;;;17.50;7.73;;;;;;;5.03;97.23;101270.84;5054383;28;20489;-69
2022/11/28 05:27:13;;;;;;;14.30;6.60;;;;;;;5.04;97.16;101275.13;5053543;28;20541;-69
2022/11/28 05:29:42;;;;;;;14.93;6.60;;;;;;;5.05;96.94;101271.41;5055008;28;20461;-69
2022/11/28 05:32:09;;;;;;;17.30;6.10;;;;;;;5.05;97.08;101267.91;5052787;28;21022;-69
2022/11/28 05:34:36;;;;;;;16.00;6.60;;;;;;;5.10;96.56;101278.72;5054031;28;20482;-70
2022/11/28 05:37:03;;;;;;;14.17;6.00;;;;;;;5.02;96.18;101279.94;5054994;28;20481;-70
2022/11/28 05:39:31;;;;;;;16.40;6.50;;;;;;;5.01;96.30;101274.84;5049114;28;20497;-70
2022/11/28 05:41:58;;;;;;;17.60;7.30;;;;;;;4.98;96.60;101273.44;5053227;28;20550;-70
2022/11/28 05:44:25;;;;;;;13.23;5.67;;;;;;;5.01;96.39;101264.91;5053914;28;20482;-70
2022/11/28 05:46:52;;;;;;;15.20;5.67;;;;;;;5.06;95.85;101261.47;5053930;28;21013;-70
2022/11/28 05:49:20;;;;;;;17.57;6.87;;;;;;;5.07;95.67;101265.78;5052607;28;20472;-69
2022/11/28 05:51:47;;;;;;;12.90;5.60;;;;;;;5.06;95.09;101261.47;5053328;28;20512;-70
2022/11/28 05:54:13;;;;;;;13.97;5.10;;;;;;;5.07;95.63;101252.38;5054859;28;21022;-70
2022/11/28 05:56:41;;;;;;;16.10;6.13;;;;;;;5.03;96.26;101243.19;5052926;28;20969;-70
2022/11/28 05:59:08;;;;;;;17.37;6.07;;;;;;;4.99;96.25;101245.53;5053269;28;20986;-70
2022/11/28 06:01:34;;;;;;;14.07;6.03;;;;;;;4.90;95.97;101241.66;5054016;28;20468;-68
2022/11/28 06:04:01;;;;;;;15.37;6.83;;;;;;;4.93;95.55;101238.47;5053416;28;20482;-70
2022/11/28 06:06:30;;;;;;;16.57;6.77;;;;;;;4.92;95.13;101230.69;5052978;28;20486;-69
2022/11/28 06:08:57;;;;;;;13.90;5.80;;;;;;;4.85;95.13;101235.41;5054274;28;20484;-69
2022/11/28 06:11:27;;;;;;;18.13;6.27;;;;;;;4.84;95.80;101231.91;5054186;28;20553;-69
2022/11/28 06:13:55;;;;;;;17.80;7.10;;;;;;;4.84;96.52;101225.72;5054246;28;20478;-69
2022/11/28 06:16:24;;;;;;;15.43;6.03;;;;;;;4.80;96.21;101218.16;5053259;28;20462;-70
2022/11/28 06:18:53;;;;;;;22.53;5.90;;;;;;;4.77;96.77;101226.69;5054401;28;20449;-69
2022/11/28 06:21:19;;;;;;;14.83;6.57;;;;;;;4.79;95.85;101223.78;5052788;28;20466;-70
2022/11/28 06:23:46;;;;;;;15.73;6.00;;;;;;;4.72;96.69;101213.22;5054933;28;20494;-70
2022/11/28 06:26:15;;;;;;;17.20;6.90;;;;;;;4.74;96.34;101210.31;5052794;28;20489;-69
2022/11/28 06:28:42;;;;;;;13.23;5.50;;;;;;;4.69;96.62;101210.22;5053712;28;20462;-69
2022/11/28 06:31:11;;;;;;;15.67;6.83;;;;;;;4.66;96.84;101214.22;5052214;28;20497;-69
2022/11/28 06:33:38;;;;;;;14.37;5.60;;;;;;;4.69;96.44;101216.41;5049756;28;20467;-69
2022/11/28 06:36:06;;;;;;;19.27;6.73;;;;;;;4.63;95.84;101209.31;5053539;28;20959;-69
2022/11/28 06:38:33;;;;;;;18.17;6.50;;;;;;;4.50;96.68;101212.34;5052006;28;20836;-68
2022/11/28 06:41:01;;;;;;;24.23;6.73;;;;;;;4.47;97.24;101215.50;5052894;28;20508;-69
2022/11/28 06:43:28;;;;;;;19.03;6.87;;;;;;;4.49;96.76;101214.22;5052391;28;20484;-69
2022/11/28 06:45:55;;;;;;;19.20;6.20;;;;;;;4.53;97.14;101209.19;5051893;28;20888;-69
2022/11/28 06:48:23;;;;;;;17.70;6.80;;;;;;;4.55;96.30;101217.78;5052502;28;20497;-69
2022/11/28 06:50:51;;;;;;;18.50;6.17;;;;;;;4.61;96.33;101219.50;5054242;28;20434;-69
2022/11/28 06:53:18;;;;;;;15.90;6.30;;;;;;;4.59;95.80;101223.47;5051807;28;20573;-69
2022/11/28 06:55:44;;;;;;;18.37;6.53;;;;;;;4.53;96.45;101214.56;5051473;28;20979;-69
2022/11/28 06:58:11;;;;;;;18.37;7.83;;;;;;;4.63;96.53;101227.31;5053465;28;20482;-69
2022/11/28 07:00:38;;;;;;;16.63;6.20;;;;;;;4.58;96.21;101222.66;5051193;28;21007;-69
2022/11/28 07:03:05;;;;;;;15.07;6.70;;;;;;;4.61;96.09;101224.06;5052993;28;20482;-70
2022/11/28 07:05:33;;;;;;;20.00;7.00;;;;;;;4.62;96.05;101233.72;5050977;28;20486;-69
2022/11/28 07:07:59;;;;;;;20.93;7.60;;;;;;;4.59;95.96;101218.91;5053871;28;20450;-70
2022/11/28 07:10:27;;;;;;;23.23;8.43;;;;;;;4.57;96.13;101220.25;5050549;28;20469;-71
2022/11/28 07:12:54;;;;;;;27.00;8.43;;;;;;;4.61;96.52;101219.50;5052803;28;20473;-70
2022/11/28 07:15:21;;;;;;;16.70;7.50;;;;;;;4.56;96.87;101203.34;5052215;28;20480;-70
2022/11/28 07:17:48;;;;;;;17.63;6.93;;;;;;;4.58;97.54;101203.88;5053162;28;20442;-70
2022/11/28 07:20:14;;;;;;;20.67;6.70;;;;;;;4.66;97.51;101208.84;5051992;28;20474;-70
2022/11/28 07:22:45;;;;;;;13.90;6.70;;;;;;;4.72;97.04;101209.72;5053888;28;20442;-71
2022/11/28 07:25:13;;;;;;;20.20;7.00;;;;;;;4.74;97.03;101216.47;5051975;28;20481;-72
2022/11/28 07:27:40;;;;;;;17.13;7.33;;;;;;;4.81;96.83;101222.47;5053723;28;20500;-70
2022/11/28 07:30:08;;;;;;;20.90;7.80;;;;;;;4.88;96.59;101222.31;5052821;28;20454;-71
2022/11/28 07:32:35;;;;;;;18.50;7.20;;;;;;;4.90;96.72;101225.53;5053420;28;20441;-72
2022/11/28 07:35:03;;;;;;;25.23;7.57;;;;;;;4.98;96.42;101222.44;5049702;28;20895;-71
2022/11/28 07:37:29;;;;;;;20.80;7.20;;;;;;;4.96;96.35;101218.41;5053558;28;20442;-70
2022/11/28 07:39:57;;;;;;;18.43;6.97;;;;;;;5.00;96.12;101227.56;5050161;28;20482;-70
2022/11/28 07:42:24;;;;;;;20.63;7.80;;;;;;;4.94;95.79;101226.69;5053178;28;20815;-71
2022/11/28 07:44:51;;;;;;;22.97;7.33;;;;;;;4.93;95.92;101225.06;5050748;28;20514;-71
2022/11/28 07:47:17;;;;;;;19.77;8.77;;;;;;;4.91;96.03;101218.31;5051535;28;20569;-68
2022/11/28 07:49:45;;;;;;;17.13;6.93;;;;;;;4.91;96.12;101218.31;5052505;28;20514;-68
2022/11/28 07:52:11;;;;;;;18.80;6.37;;;;;;;4.97;97.10;101220.81;5051294;28;20494;-69
2022/11/28 07:54:38;;;;;;;18.17;7.50;;;;;;;4.99;96.80;101210.63;5052841;28;20466;-70
2022/11/28 07:57:06;;;;;;;32.40;8.73;;;;;;;5.07;96.28;101209.41;5051262;28;20543;-71
2022/11/28 07:59:32;;;;;;;21.43;9.07;;;;;;;5.00;96.56;101214.13;5051304;28;20545;-70
2022/11/28 08:01:59;;;;;;;21.50;8.23;;;;;;;4.99;95.81;101207.16;5051740;28;20840;-69
2022/11/28 08:04:26;;;;;;;18.13;8.70;;;;;;;5.04;96.70;101199.16;5049340;28;20482;-69
2022/11/28 08:06:52;;;;;;;21.90;7.97;;;;;;;5.07;96.45;101195.97;5053075;28;20572;-69
2022/11/28 08:09:19;;;;;;;25.27;8.23;;;;;;;5.15;95.39;101205.47;5052362;28;20519;-69
2022/11/28 08:11:45;;;;;;;18.03;7.73;;;;;;;5.05;95.56;101206.16;5050527;28;20458;-69
2022/11/28 08:14:14;;;;;;;18.57;7.10;;;;;;;5.09;95.76;101193.88;5050914;28;21018;-69
2022/11/28 08:16:43;;;;;;;24.87;8.40;;;;;;;5.06;96.48;101192.50;5052958;28;20498;-70
2022/11/28 08:19:10;;;;;;;22.13;8.63;;;;;;;5.18;95.92;101192.38;5052001;28;20916;-69
2022/11/28 08:21:37;;;;;;;26.77;7.57;;;;;;;5.23;95.22;101192.44;5052965;28;20446;-69
2022/11/28 08:24:06;;;;;;;23.13;8.90;;;;;;;5.22;94.79;101190.81;5050719;28;20484;-69
2022/11/28 08:26:34;;;;;;;21.93;8.20;;;;;;;5.21;94.97;101186.47;5052033;28;20489;-70
2022/11/28 08:29:01;;;;;;;19.43;7.90;;;;;;;5.22;94.86;101187.28;5052620;28;20488;-70
2022/11/28 08:31:31;;;;;;;24.77;10.97;;;;;;;5.20;95.65;101195.59;5051367;28;20489;-69
2022/11/28 08:34:00;;;;;;;27.13;9.27;;;;;;;5.23;95.60;101187.06;5051956;28;20514;-69
2022/11/28 08:36:27;;;;;;;18.63;8.40;;;;;;;5.23;95.22;101189.75;5051914;28;20462;-70
2022/11/28 08:38:53;;;;;;;19.97;8.47;;;;;;;5.25;95.65;101192.97;5051915;28;20558;-70
2022/11/28 08:41:22;;;;;;;20.00;8.83;;;;;;;5.30;95.47;101186.84;5051371;28;20554;-68
2022/11/28 08:43:49;;;;;;;21.73;9.37;;;;;;;5.25;95.04;101190.28;5052364;28;20490;-69
2022/11/28 08:46:19;;;;;;;19.33;8.03;;;;;;;5.24;94.96;101188.69;5051165;28;20580;-69
2022/11/28 08:48:48;;;;;;;20.47;8.30;;;;;;;5.22;95.53;101189.97;5051381;28;20470;-69
2022/11/28 08:51:17;;;;;;;19.40;7.50;;;;;;;5.27;95.72;101206.19;5051435;28;20827;-70
2022/11/28 08:53:44;;;;;;;17.33;7.60;;;;;;;5.31;95.94;101189.31;5052084;28;20485;-69
2022/11/28 08:56:11;;;;;;;18.47;7.73;;;;;;;5.40;95.28;101196.91;5051768;28;20537;-69
2022/11/28 08:58:38;;;;;;;18.57;7.47;;;;;;;5.38;95.13;101199.03;5050899;28;20465;-70
2022/11/28 09:01:13;;;;;;;26.57;8.60;;;;;;;5.37;95.17;101192.84;5050581;28;20892;-69
2022/11/28 09:03:40;;;;;;;17.07;7.63;;;;;;;5.41;94.85;101193.97;5049910;28;20560;-69
2022/11/28 09:06:08;;;;;;;20.60;8.87;;;;;;;5.43;94.65;101197.22;5052584;28;20703;-69
2022/11/28 09:08:35;;;;;;;18.90;7.77;;;;;;;5.54;94.49;101204.34;5049245;28;20462;-69
2022/11/28 09:11:01;;;;;;;14.40;7.50;;;;;;;5.64;94.25;101213.56;5049584;28;20786;-69
2022/11/28 09:13:28;;;;;;;20.23;7.80;;;;;;;5.72;94.40;101213.94;5051248;28;20516;-69
2022/11/28 09:15:55;;;;;;;21.67;7.90;;;;;;;5.73;94.14;101222.81;5050404;28;20840;-70
2022/11/28 09:18:21;;;;;;;17.93;8.30;;;;;;;5.76;93.46;101211.56;5050983;28;20947;-70
2022/11/28 09:20:48;;;;;;;21.73;8.67;;;;;;;5.79;93.94;101206.47;5051328;28;20543;-69
2022/11/28 09:23:16;;;;;;;15.23;7.10;;;;;;;5.95;93.00;101207.47;5051068;28;20513;-69
2022/11/28 09:25:42;;;;;;;23.33;8.10;;;;;;;5.99;92.47;101189.75;5052222;28;20449;-69
2022/11/28 09:28:09;;;;;;;20.97;8.37;;;;;;;5.98;92.03;101190.84;5051311;28;20460;-70
2022/11/28 09:30:35;;;;;;;21.37;8.03;;;;;;;5.92;91.78;101183.78;5052063;28;20464;-70
2022/11/28 09:33:02;;;;;;;21.63;8.20;;;;;;;6.07;91.22;101191.19;5053607;28;20544;-72
2022/11/28 09:35:28;;;;;;;20.53;6.90;;;;;;;6.15;90.90;101188.00;5054250;28;20979;-72
2022/11/28 09:37:56;;;;;;;19.40;6.87;;;;;;;6.23;90.32;101187.53;5054011;28;20454;-70
2022/11/28 09:40:31;;;;;;;16.73;7.63;;;;;;;6.17;90.19;101185.06;5053918;28;20563;-70
2022/11/28 09:43:00;;;;;;;19.27;7.03;;;;;;;6.20;89.79;101181.88;5055673;28;20426;-69
2022/11/28 09:45:27;;;;;;;22.03;8.63;;;;;;;6.27;89.66;101180.56;5052284;28;20802;-69
2022/11/28 09:47:56;;;;;;;16.17;7.50;;;;;;;6.33;89.36;101186.81;5054643;28;20569;-69
2022/11/28 09:50:26;;;;;;;15.77;7.53;;;;;;;6.32;89.74;101183.28;5052970;28;20464;-69
2022/11/28 09:53:00;;;;;;;14.73;6.67;;;;;;;6.31;89.26;101187.06;5055070;28;20542;-70
2022/11/28 09:55:33;;;;;;;24.67;7.80;;;;;;;6.28;89.34;101190.25;5054410;28;20532;-72
2022/11/28 09:58:04;;;;;;;16.70;8.07;;;;;;;6.31;89.04;101186.25;5055520;28;20506;-70
2022/11/28 10:00:36;;;;;;;24.47;7.50;;;;;;;6.41;89.24;101190.91;5052698;28;20537;-70
2022/11/28 10:03:17;;;;;;;19.73;7.60;;;;;;;6.42;89.14;101193.34;5053740;28;21026;-70
2022/11/28 10:05:53;;;;;;;18.43;7.67;;;;;;;6.48;89.18;101203.06;5053238;28;20453;-70
2022/11/28 10:08:27;;;;;;;17.80;7.83;;;;;;;6.45;88.71;101200.88;5052468;28;20453;-69
2022/11/28 10:11:03;;;;;;;20.27;8.40;;;;;;;6.41;88.10;101202.47;5053605;28;20533;-70
2022/11/28 10:13:41;;;;;;;14.33;6.60;;;;;;;6.38;87.92;101204.88;5054980;28;20462;-70
2022/11/28 10:16:13;;;;;;;20.47;7.33;;;;;;;6.41;88.20;101196.28;5055203;28;20483;-70
2022/11/28 10:18:47;;;;;;;20.83;8.03;;;;;;;6.41;87.96;101185.50;5054987;28;20458;-70
2022/11/28 10:21:35;;;;;;;17.60;7.53;;;;;;;6.31;88.01;101183.56;5055032;28;20469;-70
2022/11/28 10:24:05;;;;;;;18.30;7.03;;;;;;;6.30;88.27;101185.44;5051872;28;20478;-69
2022/11/28 10:26:36;;;;;;;15.60;6.57;;;;;;;6.23;87.91;101173.28;5049070;28;20481;-70
2022/11/28 10:29:13;;;;;;;16.40;6.70;;;;;;;6.25;88.39;101163.88;5046450;28;20493;-70
2022/11/28 10:31:42;;;;;;;25.73;7.50;;;;;;;6.29;88.86;101162.31;5053604;28;20454;-70
2022/11/28 10:34:16;;;;;;;16.80;7.87;;;;;;;6.27;88.48;101163.63;5054707;28;20484;-70
2022/11/28 10:36:52;;;;;;;21.63;7.80;;;;;;;6.37;88.09;101166.38;5053009;28;20482;-70
2022/11/28 10:39:19;;;;;;;19.03;7.13;;;;;;;6.43;88.21;101145.72;5054439;28;20961;-70
2022/11/28 10:42:10;;;;;;;22.10;7.73;;;;;;;6.49;88.23;101163.50;5053296;28;20454;-70
2022/11/28 10:44:52;;;;;;;23.37;7.80;;;;;;;6.55;88.50;101162.47;5053938;28;20562;-70
2022/11/28 10:47:35;;;;;;;20.23;7.97;;;;;;;6.69;86.93;101154.75;5054027;28;20838;-70
2022/11/28 10:50:06;;;;;;;18.07;6.70;;;;;;;6.56;86.88;101156.84;5053277;28;20476;-70
2022/11/28 10:52:43;;;;;;;17.93;7.10;;;;;;;6.77;86.54;101151.56;5054284;28;20469;-70
2022/11/28 10:55:24;;;;;;;20.80;7.67;;;;;;;6.77;85.67;101160.47;5052333;28;20494;-70
2022/11/28 10:58:05;;;;;;;24.67;8.43;;;;;;;6.60;86.33;101150.91;5053462;28;20474;-70
2022/11/28 11:00:34;;;;;;;17.50;7.47;;;;;;;6.70;86.77;101142.91;5053416;28;20485;-70
2022/11/28 11:03:02;;;;;;;16.73;7.13;;;;;;;6.71;86.53;101137.25;5054124;28;20448;-70
2022/11/28 11:05:32;;;;;;;17.60;7.80;;;;;;;6.69;86.13;101139.41;5053428;28;20545;-70
2022/11/28 11:08:04;;;;;;;22.53;7.60;;;;;;;6.75;86.65;101142.94;5052118;28;20490;-70
2022/11/28 11:10:36;;;;;;;20.77;8.70;;;;;;;6.83;86.44;101134.38;5054160;28;20430;-70
2022/11/28 11:13:14;;;;;;;16.30;7.17;;;;;;;6.90;86.96;101128.72;5053805;28;20468;-70
2022/11/28 11:15:40;;;;;;;18.63;6.73;;;;;;;6.92;85.30;101131.97;5053945;28;20888;-70
2022/11/28 11:18:22;;;;;;;19.20;8.27;;;;;;;6.91;86.02;101135.75;5053977;28;20473;-70
2022/11/28 11:20:49;;;;;;;17.33;7.83;;;;;;;7.14;85.71;101129.91;5053995;28;20422;-70
2022/11/28 11:23:18;;;;;;;16.07;7.63;;;;;;;7.21;84.97;101135.84;5054041;28;20894;-70
2022/11/28 11:25:53;;;;;;;19.63;7.97;;;;;;;7.24;84.49;101135.31;5053872;28;20442;-70
2022/11/28 11:28:37;;;;;;;17.93;6.43;;;;;;;7.33;83.60;101133.72;5052141;28;20476;-69
2022/11/28 11:31:06;;;;;;;21.90;7.10;;;;;;;7.18;83.60;101125.63;5051275;28;20452;-70
2022/11/28 11:33:36;;;;;;;20.13;7.67;;;;;;;7.19;83.57;101131.81;5051762;28;20465;-70
2022/11/28 11:36:04;;;;;;;20.70;8.50;;;;;;;7.25;83.87;101136.13;5051222;28;20460;-70
2022/11/28 11:38:34;;;;;;;21.17;8.23;;;;;;;7.25;84.01;101128.03;5052242;28;20438;-70
2022/11/28 11:41:20;;;;;;;24.90;8.30;;;;;;;7.40;83.45;101136.19;5053356;28;20441;-70